Tsuiki Air Base, Japan

7:52 AM JST on August 31, 2015 (GMT +0900)
Yamaguchi-Ube | | Change Station
CLOSE
Current Station
Airport
Location: Yamaguchi Ube,
Elevation: 26 ft
Nearby Weather Stations

Elev 26 ft 33.93 °N, 131.28 °E | Updated 11 minutes ago

Heavy Rain Showers
Heavy Showers Rain
72 °F
Feels Like 72 °F
N
9
Wind Variable Wind from NE

Today
High -- | Low -- °F
--% Chance of Precip.
Yesterday
High -- | Low -- °F
Precip. -- in
5:48 AM 6:43 PM
Full, 98% visible
Pressure 29.86 in
Visibility 0.9 miles
Clouds Few 500 ft
Scattered Clouds 800 ft
Mostly Cloudy 1000 ft
Dew Point 70 °F
Humidity 94%
Rainfall 0.00 in
Snow Depth Not available.
UV 1 out of 12
Pollen Not available.
Air Quality Not available.
Flu Activity Not available.
SPECI RJDC 302241Z 05008KT 1500 R07/1600VP1800N +SHRA FEW005 SCT008 BKN010 22/21 Q1011 RMK 1ST005 3ST008 5ST010 A2987
Pressure 29.86 in
Visibility 0.9 miles
Clouds Few 500 ft
Scattered Clouds 800 ft
Mostly Cloudy 1000 ft
Dew Point 70 °F
Humidity 94%
Rainfall 0.00 in
Snow Depth Not available.
UV 1 out of 12
Pollen Not available.
Air Quality Not available.
Flu Activity Not available.
SPECI RJDC 302241Z 05008KT 1500 R07/1600VP1800N +SHRA FEW005 SCT008 BKN010 22/21 Q1011 RMK 1ST005 3ST008 5ST010 A2987

10-Day Weather Forecast

×

Almanac

Astronomy

Aug. 31, 2015 Rise Set
Actual Time
Civil Twilight
Nautical Twilight
Astronomical Twilight
Moon
Length of Visible Light
Length of Day
Tomorrow will be .
, % of the Moon is Illuminated

Today's Extremes

Country Highs Country Lows

Community

WunderPhotos

Upload Photos

1,851,075 photos uploaded!

WunderBlogs® & News

Nearby

Air Quality

  Air Quality AQ Index Pollutant
Not available.

Snow Depth

Station Depth Elevation

Earthquake Activity

City Distance Mag. Time & Date
Minimum magnitude displayed is 2.5.

Coastal Water Temperatures

Place Temperature

Stations

Nearby Weather Stations

Station Location Temp. Windchill Dew Point Humidity Wind Precip. Elev Updated Type